Map

Track Data

SID SEASON NUMBER BASIN SUBBASIN NAME ISO_TIME NATURE LAT LON WMO_WIND WMO_PRES WMO_AGENCY TRACK_TYPE DIST2LAND LANDFALL IFLAG USA_AGENCY USA_ATCF_ID USA_LAT USA_LON USA_RECORD USA_STATUS USA_WIND USA_PRES USA_SSHS USA_R34_NE USA_R34_SE USA_R34_SW USA_R34_NW USA_R50_NE USA_R50_SE USA_R50_SW USA_R50_NW USA_R64_NE USA_R64_SE USA_R64_SW USA_R64_NW USA_POCI USA_ROCI USA_RMW USA_EYE TOKYO_LAT TOKYO_LON TOKYO_GRADE TOKYO_WIND TOKYO_PRES TOKYO_R50_DIR TOKYO_R50_LONG TOKYO_R50_SHORT TOKYO_R30_DIR TOKYO_R30_LONG TOKYO_R30_SHORT TOKYO_LAND CMA_LAT CMA_LON CMA_CAT CMA_WIND CMA_PRES HKO_LAT HKO_LON HKO_CAT HKO_WIND HKO_PRES NEWDELHI_LAT NEWDELHI_LON NEWDELHI_GRADE NEWDELHI_WIND NEWDELHI_PRES NEWDELHI_CI NEWDELHI_DP NEWDELHI_POCI REUNION_LAT REUNION_LON REUNION_TYPE REUNION_WIND REUNION_PRES REUNION_TNUM REUNION_CI REUNION_RMW REUNION_R34_NE REUNION_R34_SE REUNION_R34_SW REUNION_R34_NW REUNION_R50_NE REUNION_R50_SE REUNION_R50_SW REUNION_R50_NW REUNION_R64_NE REUNION_R64_SE REUNION_R64_SW REUNION_R64_NW BOM_LAT BOM_LON BOM_TYPE BOM_WIND BOM_PRES BOM_TNUM BOM_CI BOM_RMW BOM_R34_NE BOM_R34_SE BOM_R34_SW BOM_R34_NW BOM_R50_NE BOM_R50_SE BOM_R50_SW BOM_R50_NW BOM_R64_NE BOM_R64_SE BOM_R64_SW BOM_R64_NW BOM_ROCI BOM_POCI BOM_EYE BOM_POS_METHOD BOM_PRES_METHOD NADI_LAT NADI_LON NADI_CAT NADI_WIND NADI_PRES WELLINGTON_LAT WELLINGTON_LON WELLINGTON_WIND WELLINGTON_PRES DS824_LAT DS824_LON DS824_STAGE DS824_WIND DS824_PRES TD9636_LAT TD9636_LON TD9636_STAGE TD9636_WIND TD9636_PRES TD9635_LAT TD9635_LON TD9635_WIND TD9635_PRES TD9635_ROCI NEUMANN_LAT NEUMANN_LON NEUMANN_CLASS NEUMANN_WIND NEUMANN_PRES MLC_LAT MLC_LON MLC_CLASS MLC_WIND MLC_PRES USA_GUST BOM_GUST BOM_GUST_PER REUNION_GUST REUNION_GUST_PER USA_SEAHGT USA_SEARAD_NE USA_SEARAD_SE USA_SEARAD_SW USA_SEARAD_NW STORM_SPEED STORM_DIR
1969206N09333 1969 44 NA NA ANNA 1969-07-25 06:00:00 TS 9.20000 -27.0000 30 hurdat_atl main 1170 1170 O_____________ hurdat_atl AL061969 9.20000 -27.0000 TD 30 -1 9 254
1969206N09333 1969 44 NA NA ANNA 1969-07-25 09:00:00 TS 9.07247 -27.4601 main 1226 1226 P_____________ AL061969 9.07247 -27.4601 TD 30 -1 10 259
1969206N09333 1969 44 NA NA ANNA 1969-07-25 12:00:00 TS 9.00000 -28.0000 30 hurdat_atl main 1282 1282 O_____________ hurdat_atl AL061969 9.00000 -28.0000 TD 30 -1 12 267
1969206N09333 1969 44 NA NA ANNA 1969-07-25 15:00:00 TS 9.02014 -28.6574 main 1355 1355 P_____________ AL061969 9.02014 -28.6574 TD 30 -1 13 274
1969206N09333 1969 44 NA NA ANNA 1969-07-25 18:00:00 TS 9.10000 -29.3000 30 hurdat_atl main 1415 1415 O_____________ hurdat_atl AL061969 9.10000 -29.3000 TD 30 -1 11 279
1969206N09333 1969 44 NA NA ANNA 1969-07-25 21:00:00 TS 9.19219 -29.7500 main 1465 1465 P_____________ AL061969 9.19219 -29.7500 TD 30 -1 9 283
1969206N09333 1969 44 NA NA ANNA 1969-07-26 00:00:00 TS 9.30000 -30.2000 30 hurdat_atl main 1504 1504 O_____________ hurdat_atl AL061969 9.30000 -30.2000 TD 30 -1 11 280
1969206N09333 1969 44 NA NA ANNA 1969-07-26 03:00:00 TS 9.37753 -30.8202 main 1563 1563 P_____________ AL061969 9.37753 -30.8202 TD 30 -1 13 279
1969206N09333 1969 44 NA NA ANNA 1969-07-26 06:00:00 TS 9.50000 -31.5000 30 hurdat_atl main 1629 1629 O_____________ hurdat_atl AL061969 9.50000 -31.5000 TD 30 -1 14 285
1969206N09333 1969 44 NA NA ANNA 1969-07-26 09:00:00 TS 9.73492 -32.1574 main 1640 1635 P_____________ AL061969 9.73492 -32.1574 TD 30 -1 14 291
1969206N09333 1969 44 NA NA ANNA 1969-07-26 12:00:00 TS 10.0000 -32.8000 30 hurdat_atl main 1640 1630 O_____________ hurdat_atl AL061969 10.0000 -32.8000 TD 30 -1 13 291
1969206N09333 1969 44 NA NA ANNA 1969-07-26 15:00:00 TS 10.2074 -33.4226 main 1630 1621 P_____________ AL061969 10.2074 -33.4226 TD 30 -1 12 289
1969206N09333 1969 44 NA NA ANNA 1969-07-26 18:00:00 TS 10.4000 -34.0000 30 hurdat_atl main 1622 1616 O_____________ hurdat_atl AL061969 10.4000 -34.0000 TD 30 -1 11 290
1969206N09333 1969 44 NA NA ANNA 1969-07-26 21:00:00 TS 10.5998 -34.5151 main 1622 1617 P_____________ AL061969 10.5998 -34.5151 TD 30 -1 11 292
1969206N09333 1969 44 NA NA ANNA 1969-07-27 00:00:00 TS 10.8000 -35.0000 30 hurdat_atl main 1624 1620 O_____________ hurdat_atl AL061969 10.8000 -35.0000 TD 30 -1 11 292
1969206N09333 1969 44 NA NA ANNA 1969-07-27 03:00:00 TS 11.0151 -35.5449 main 1628 1625 P_____________ AL061969 11.0151 -35.5449 TD 32 -1 11 292
1969206N09333 1969 44 NA NA ANNA 1969-07-27 06:00:00 TS 11.2000 -36.0000 35 hurdat_atl main 1634 1632 O_____________ hurdat_atl AL061969 11.2000 -36.0000 TS 35 0 7 294
1969206N09333 1969 44 NA NA ANNA 1969-07-27 09:00:00 TS 11.3148 -36.2301 main 1640 1637 P_____________ AL061969 11.3148 -36.2301 TS 35 0 4 297
1969206N09333 1969 44 NA NA ANNA 1969-07-27 12:00:00 TS 11.4000 -36.4000 35 hurdat_atl main 1645 1643 O_____________ hurdat_atl AL061969 11.4000 -36.4000 TS 35 0 5 292
1969206N09333 1969 44 NA NA ANNA 1969-07-27 15:00:00 TS 11.4849 -36.6551 main 1649 1645 P_____________ AL061969 11.4849 -36.6551 TS 37 0 6 289
1969206N09333 1969 44 NA NA ANNA 1969-07-27 18:00:00 TS 11.6000 -37.0000 40 hurdat_atl main 1653 1651 O_____________ hurdat_atl AL061969 11.6000 -37.0000 TS 40 0 8 291
1969206N09333 1969 44 NA NA ANNA 1969-07-27 21:00:00 TS 11.7925 -37.4549 main 1666 1664 P_____________ AL061969 11.7925 -37.4549 TS 40 0 11 292
1969206N09333 1969 44 NA NA ANNA 1969-07-28 00:00:00 TS 12.0000 -38.0000 40 hurdat_atl main 1681 1648 O_____________ hurdat_atl AL061969 12.0000 -38.0000 TS 40 0 12 288
1969206N09333 1969 44 NA NA ANNA 1969-07-28 03:00:00 TS 12.1501 -38.6001 main 1654 1604 P_____________ AL061969 12.1501 -38.6001 TS 42 0 12 284
1969206N09333 1969 44 NA NA ANNA 1969-07-28 06:00:00 TS 12.3000 -39.2000 45 hurdat_atl main 1604 1572 O_____________ hurdat_atl AL061969 12.3000 -39.2000 TS 45 0 11 288
1969206N09333 1969 44 NA NA ANNA 1969-07-28 09:00:00 TS 12.4923 -39.7076 main 1572 1541 P_____________ AL061969 12.4923 -39.7076 TS 47 0 11 292
1969206N09333 1969 44 NA NA ANNA 1969-07-28 12:00:00 TS 12.7000 -40.2000 50 hurdat_atl main 1541 1511 O_____________ hurdat_atl AL061969 12.7000 -40.2000 TS 50 0 11 292
1969206N09333 1969 44 NA NA ANNA 1969-07-28 15:00:00 TS 12.8999 -40.7351 main 1511 1476 P_____________ AL061969 12.8999 -40.7351 TS 52 0 11 290
1969206N09333 1969 44 NA NA ANNA 1969-07-28 18:00:00 TS 13.1000 -41.3000 55 hurdat_atl main 1476 1451 O_____________ hurdat_atl AL061969 13.1000 -41.3000 TS 55 0 12 290
1969206N09333 1969 44 NA NA ANNA 1969-07-28 21:00:00 TS 13.2998 -41.8776 main 1443 1412 P_____________ AL061969 13.2998 -41.8776 TS 55 0 12 289
1969206N09333 1969 44 NA NA ANNA 1969-07-29 00:00:00 TS 13.5000 -42.5000 55 hurdat_atl main 1412 1378 O_____________ hurdat_atl AL061969 13.5000 -42.5000 TS 55 0 14 288
1969206N09333 1969 44 NA NA ANNA 1969-07-29 03:00:00 TS 13.7226 -43.2073 main 1378 1347 P_____________ AL061969 13.7226 -43.2073 TS 55 0 14 286
1969206N09333 1969 44 NA NA ANNA 1969-07-29 06:00:00 TS 13.9000 -43.9000 55 hurdat_atl main 1347 1318 O_____________ hurdat_atl AL061969 13.9000 -43.9000 TS 55 0 13 281
1969206N09333 1969 44 NA NA ANNA 1969-07-29 09:00:00 TS 13.9648 -44.4803 main 1318 1287 P_____________ AL061969 13.9648 -44.4803 TS 55 0 11 275
1969206N09333 1969 44 NA NA ANNA 1969-07-29 12:00:00 TS 14.0000 -45.0000 55 hurdat_atl main 1287 1269 O_____________ hurdat_atl AL061969 14.0000 -45.0000 TS 55 0 10 277
1969206N09333 1969 44 NA NA ANNA 1969-07-29 15:00:00 TS 14.0845 -45.4627 main 1264 1240 P_____________ AL061969 14.0845 -45.4627 TS 57 0 10 282
1969206N09333 1969 44 NA NA ANNA 1969-07-29 18:00:00 TS 14.2000 -46.0000 60 1003 hurdat_atl main 1240 1206 O_____________ hurdat_atl AL061969 14.2000 -46.0000 TS 60 1003 0 12 282
1969206N09333 1969 44 NA NA ANNA 1969-07-29 21:00:00 TS 14.3497 -46.7175 main 1206 1181 P_____________ AL061969 14.3497 -46.7175 TS 57 0 16 281
1969206N09333 1969 44 NA NA ANNA 1969-07-30 00:00:00 TS 14.5000 -47.6000 55 hurdat_atl main 1176 1143 O_____________ hurdat_atl AL061969 14.5000 -47.6000 TS 55 0 18 278
1969206N09333 1969 44 NA NA ANNA 1969-07-30 03:00:00 TS 14.5924 -48.6054 main 1138 1106 P_____________ AL061969 14.5924 -48.6054 TS 52 0 20 276
1969206N09333 1969 44 NA NA ANNA 1969-07-30 06:00:00 TS 14.7000 -49.7000 50 hurdat_atl main 1101 1067 O_____________ hurdat_atl AL061969 14.7000 -49.7000 TS 50 0 22 277
1969206N09333 1969 44 NA NA ANNA 1969-07-30 09:00:00 TS 14.8700 -50.8226 main 1074 1055 P_____________ AL061969 14.8700 -50.8226 TS 47 0 22 281
1969206N09333 1969 44 NA NA ANNA 1969-07-30 12:00:00 TS 15.1000 -51.9000 45 1005 hurdat_atl main 1060 1032 O_____________ hurdat_atl AL061969 15.1000 -51.9000 TS 45 1005 0 20 285
1969206N09333 1969 44 NA NA ANNA 1969-07-30 15:00:00 TS 15.3690 -52.8080 main 1032 977 P_____________ AL061969 15.3690 -52.8080 TS 45 1004 0 18 289
1969206N09333 1969 44 NA NA ANNA 1969-07-30 18:00:00 TS 15.7000 -53.7000 45 hurdat_atl main 968 903 I_____________ hurdat_atl AL061969 15.7000 -53.7000 TS 45 1004 0 20 290
1969206N09333 1969 44 NA NA ANNA 1969-07-30 21:00:00 TS 16.0471 -54.7134 main 903 857 P_____________ AL061969 16.0471 -54.7134 TS 45 1004 0 22 292
1969206N09333 1969 44 NA NA ANNA 1969-07-31 00:00:00 TS 16.5000 -55.8000 45 1004 hurdat_atl main 858 838 O_____________ hurdat_atl AL061969 16.5000 -55.8000 TS 45 1004 0 24 297
1969206N09333 1969 44 NA NA ANNA 1969-07-31 03:00:00 TS 17.1120 -56.9277 main 842 805 P_____________ AL061969 17.1120 -56.9277 TS 42 0 26 301
1969206N09333 1969 44 NA NA ANNA 1969-07-31 06:00:00 TS 17.8000 -58.1000 40 hurdat_atl main 794 675 O_____________ hurdat_atl AL061969 17.8000 -58.1000 TS 40 0 26 300
1969206N09333 1969 44 NA NA ANNA 1969-07-31 09:00:00 TS 18.4422 -59.3083 main 664 551 P_____________ AL061969 18.4422 -59.3083 TS 37 0 26 300
1969206N09333 1969 44 NA NA ANNA 1969-07-31 12:00:00 TS 19.1000 -60.5000 35 hurdat_atl main 542 454 O_____________ hurdat_atl AL061969 19.1000 -60.5000 TS 35 0 26 302
1969206N09333 1969 44 NA NA ANNA 1969-07-31 15:00:00 TS 19.8060 -61.5861 main 448 386 P_____________ AL061969 19.8060 -61.5861 TS 32 -1 25 304
1969206N09333 1969 44 NA NA ANNA 1969-07-31 18:00:00 TS 20.5000 -62.7000 30 hurdat_atl main 384 335 O_____________ hurdat_atl AL061969 20.5000 -62.7000 TD 30 -1 26 299
1969206N09333 1969 44 NA NA ANNA 1969-07-31 21:00:00 TS 21.0635 -64.0388 main 345 335 P_____________ AL061969 21.0635 -64.0388 TD 30 -1 27 296
1969206N09333 1969 44 NA NA ANNA 1969-08-01 00:00:00 TS 21.7000 -65.3000 30 hurdat_atl main 370 369 O_____________ hurdat_atl AL061969 21.7000 -65.3000 TD 30 -1 25 308
1969206N09333 1969 44 NA NA ANNA 1969-08-01 03:00:00 TS 22.6177 -66.1815 main 469 469 P_____________ AL061969 22.6177 -66.1815 TD 30 -1 25 320
1969206N09333 1969 44 NA NA ANNA 1969-08-01 06:00:00 TS 23.6000 -67.0000 30 hurdat_atl main 536 531 O_____________ hurdat_atl AL061969 23.6000 -67.0000 TD 30 -1 25 316
1969206N09333 1969 44 NA NA ANNA 1969-08-01 09:00:00 TS 24.4073 -68.0568 main 571 571 P_____________ AL061969 24.4073 -68.0568 TD 30 -1 26 309
1969206N09333 1969 44 NA NA ANNA 1969-08-01 12:00:00 TS 25.2000 -69.2000 30 hurdat_atl main 592 585 O_____________ hurdat_atl AL061969 25.2000 -69.2000 TD 30 -1 27 309
1969206N09333 1969 44 NA NA ANNA 1969-08-01 15:00:00 TS 26.0927 -70.3874 main 608 603 P_____________ AL061969 26.0927 -70.3874 TD 32 -1 27 311
1969206N09333 1969 44 NA NA ANNA 1969-08-01 18:00:00 TS 27.0000 -71.5000 35 1008 hurdat_atl main 665 633 O_____________ hurdat_atl AL061969 27.0000 -71.5000 TS 35 1008 0 26 314
1969206N09333 1969 44 NA NA ANNA 1969-08-01 21:00:00 TS 27.8944 -72.4554 main 629 616 P_____________ AL061969 27.8944 -72.4554 TS 32 1011 -1 23 319
1969206N09333 1969 44 NA NA ANNA 1969-08-02 00:00:00 TS 28.7000 -73.2000 30 1014 hurdat_atl main 622 622 O_____________ hurdat_atl AL061969 28.7000 -73.2000 TD 30 1014 -1 18 322
1969206N09333 1969 44 NA NA ANNA 1969-08-02 03:00:00 TS 29.3292 -73.7344 main 632 577 P_____________ AL061969 29.3292 -73.7344 TD 30 1013 -1 14 327
1969206N09333 1969 44 NA NA ANNA 1969-08-02 06:00:00 TS 29.9000 -74.1000 30 hurdat_atl main 577 501 I_____________ hurdat_atl AL061969 29.9000 -74.1000 TD 30 1013 -1 14 332
1969206N09333 1969 44 NA NA ANNA 1969-08-02 09:00:00 TS 30.5350 -74.4820 main 501 424 P_____________ AL061969 30.5350 -74.4820 TD 30 1013 -1 14 338
1969206N09333 1969 44 NA NA ANNA 1969-08-02 12:00:00 TS 31.2000 -74.7000 30 1013 hurdat_atl main 424 354 O_____________ hurdat_atl AL061969 31.2000 -74.7000 TD 30 1013 -1 14 353
1969206N09333 1969 44 NA NA ANNA 1969-08-02 15:00:00 TS 31.8923 -74.6831 main 354 298 P_____________ AL061969 31.8923 -74.6831 TD 30 1010 -1 14 7
1969206N09333 1969 44 NA NA ANNA 1969-08-02 18:00:00 TS 32.6000 -74.5000 30 1008 hurdat_atl main 298 255 O_____________ hurdat_atl AL061969 32.6000 -74.5000 TD 30 1008 -1 14 12
1969206N09333 1969 44 NA NA ANNA 1969-08-02 21:00:00 TS 33.2169 -74.3439 main 262 230 P_____________ AL061969 33.2169 -74.3439 TD 30 -1 15 17
1969206N09333 1969 44 NA NA ANNA 1969-08-03 00:00:00 TS 34.0000 -74.0000 30 hurdat_atl main 233 193 O_____________ hurdat_atl AL061969 34.0000 -74.0000 TD 30 -1 21 21
1969206N09333 1969 44 NA NA ANNA 1969-08-03 03:00:00 TS 35.1655 -73.4339 main 201 197 P_____________ AL061969 35.1655 -73.4339 TD 40 0 28 26
1969206N09333 1969 44 NA NA ANNA 1969-08-03 06:00:00 TS 36.5000 -72.5000 50 hurdat_atl main 279 279 O_____________ hurdat_atl AL061969 36.5000 -72.5000 TS 50 0 32 35
1969206N09333 1969 44 NA NA ANNA 1969-08-03 09:00:00 TS 37.7939 -71.1800 main 328 301 P_____________ AL061969 37.7939 -71.1800 TS 50 0 34 43
1969206N09333 1969 44 NA NA ANNA 1969-08-03 12:00:00 TS 39.0000 -69.5000 50 hurdat_atl main 296 255 O_____________ hurdat_atl AL061969 39.0000 -69.5000 TS 50 0 36 50
1969206N09333 1969 44 NA NA ANNA 1969-08-03 15:00:00 TS 40.0924 -67.6131 main 268 268 P_____________ AL061969 40.0924 -67.6131 TS 52 0 35 58
1969206N09333 1969 44 NA NA ANNA 1969-08-03 18:00:00 TS 40.9000 -65.6000 55 1002 hurdat_atl main 289 264 O_____________ hurdat_atl AL061969 40.9000 -65.6000 TS 55 1002 0 32 68
1969206N09333 1969 44 NA NA ANNA 1969-08-03 21:00:00 TS 41.2993 -63.7199 main 277 277 P_____________ AL061969 41.2993 -63.7199 TS 52 0 29 78
1969206N09333 1969 44 NA NA ANNA 1969-08-04 00:00:00 ET 41.5000 -61.8000 50 hurdat_atl main 353 353 O_____________ hurdat_atl AL061969 41.5000 -61.8000 EX 50 -4 30 81
1969206N09333 1969 44 NA NA ANNA 1969-08-04 03:00:00 ET 41.7547 -59.7001 main 394 394 P_____________ AL061969 41.7547 -59.7001 EX 47 -4 32 81
1969206N09333 1969 44 NA NA ANNA 1969-08-04 06:00:00 ET 42.0000 -57.5000 45 hurdat_atl main 458 458 O_____________ hurdat_atl AL061969 42.0000 -57.5000 EX 45 -4 32 81
1969206N09333 1969 44 NA NA ANNA 1969-08-04 09:00:00 ET 42.2392 -55.3735 main 509 455 P_____________ AL061969 42.2392 -55.3735 EX 45 -4 34 81
1969206N09333 1969 44 NA NA ANNA 1969-08-04 12:00:00 ET 42.5000 -53.0000 45 hurdat_atl main 455 449 O_____________ hurdat_atl AL061969 42.5000 -53.0000 EX 45 -4 40 83
1969206N09333 1969 44 NA NA ANNA 1969-08-04 15:00:00 ET 42.7559 -50.0370 main 491 491 P_____________ AL061969 42.7559 -50.0370 EX 45 -4 44 84
1969206N09333 1969 44 NA NA ANNA 1969-08-04 18:00:00 ET 43.0000 -47.0000 45 hurdat_atl main 630 630 O_____________ hurdat_atl AL061969 43.0000 -47.0000 EX 45 -4 41 84
1969206N09333 1969 44 NA NA ANNA 1969-08-04 21:00:00 ET 43.2020 -44.4182 main 782 782 P_____________ AL061969 43.2020 -44.4182 EX 45 -4 37 82
1969206N09333 1969 44 NA NA ANNA 1969-08-05 00:00:00 ET 43.5000 -42.0000 45 hurdat_atl main 933 933 O_____________ hurdat_atl AL061969 43.5000 -42.0000 EX 45 -4 36 78
1969206N09333 1969 44 NA NA ANNA 1969-08-05 03:00:00 ET 43.9573 -39.5005 main 1082 1082 P_____________ AL061969 43.9573 -39.5005 EX 40 -4 37 74
1969206N09333 1969 44 NA NA ANNA 1969-08-05 06:00:00 ET 44.5000 -37.0000 35 hurdat_atl main 1243 1243 O_____________ hurdat_atl AL061969 44.5000 -37.0000 EX 35 -4 37 73
1969206N09333 1969 44 NA NA ANNA 1969-08-05 09:00:00 ET 45.0231 -34.5066 main 1410 1410 P_____________ AL061969 45.0231 -34.5066 EX 35 -4 37 74
1969206N09333 1969 44 NA NA ANNA 1969-08-05 12:00:00 ET 45.5000 -32.0000 35 hurdat_atl main 1580 O_____________ hurdat_atl AL061969 45.5000 -32.0000 EX 35 -4 36 75

About IBTrACS Database

This database is a web-friendly format of International Best Track Archive for Climate Stewardship (IBTrACS), a global best track data archive curated by NOAA dating back to 1842.

Updated: 2021-10-21